• Join FlightAware (Why Join?)
  • Login
  • US Flag 
02:26AM EDT


 

Airport Tracker/Info


-or-


 

Live Flight TrackerFlight Track Log ✈ N566UA ✈ 04-Apr-2013 ✈ KIAH - KLAS

Flight Track Log - Related Links

Times and Time Zones

All times are in EDT time to prevent confusion due to time zone crossing. See the N566UA flight status page for this flight to view local times or setup timezone preferences in your user account.

Time Position Orientation Groundspeed Altitude Reporting Facility
EDT Latitude Longitude Course Direction KTS MPH feet Rate Location/Type
12:42PM 29.9778 -95.3367 334° Northwest 209 241 600  Level Houston Center
12:43PM 29.9769 -95.3731 268° West 186 214 2,000 1,980 Climbing Houston Center
12:44PM 30.0356 -95.3925 344° North 253 291 3,900 1,500 Climbing Houston Center
12:45PM 30.2607 -95.5004 334° Northwest  Level FlightAware Approximate
12:45PM 30.1069 -95.3936 359° North 244 281 5,100  Level Houston Center
12:46PM 30.3549 -95.5527 334° Northwest  Level FlightAware Approximate
12:46PM 30.1728 -95.4025 353° North 264 304 7,900  Level Houston Center
12:47PM 30.4492 -95.6051 334° Northwest  Level FlightAware Approximate
12:47PM 30.2422 -95.4494 330° Northwest 264 304 11,000  Level Houston Center
12:48PM 30.3308 -95.5106 329° Northwest 312 359 13,700 2,580 Climbing Houston Center
12:49PM 30.4083 -95.5644 329° Northwest 324 373 16,400 2,340 Climbing Houston Center
12:50PM 30.4889 -95.6206 329° Northwest 335 386 18,600 2,100 Climbing Houston Center
12:51PM 30.5744 -95.6758 331° Northwest 352 405 20,800 1,980 Climbing Houston Center
12:52PM 30.6694 -95.7258 336° Northwest 371 427 22,800 1,980 Climbing Houston Center
12:53PM 30.7819 -95.7853 336° Northwest 373 429 25,000 1,920 Climbing Houston Center
12:54PM 30.8817 -95.8386 335° Northwest 383 441 26,800 1,500 Climbing Houston Center
12:55PM 30.9831 -95.8925 336° Northwest 392 451 28,200 1,380 Climbing Houston Center
12:56PM 31.0889 -95.9500 335° Northwest 406 467 29,700 1,320 Climbing Houston Center
12:57PM 31.1531 -95.9789 339° North 421 484 30,200 1,140 Climbing Fort Worth Center
12:58PM 31.2661 -96.0231 342° North 421 484 31,400 1,260 Climbing Fort Worth Center
12:59PM 31.3836 -96.0678 342° North 427 491 32,800 1,440 Climbing Fort Worth Center
01:00PM 31.4947 -96.1100 342° North 427 491 34,300 1,320 Climbing Fort Worth Center
01:01PM 31.6100 -96.1572 341° North 427 491 35,500 840 Climbing Fort Worth Center
01:02PM 31.7025 -96.2314 326° Northwest 421 484 36,000 240 Climbing Fort Worth Center
01:03PM 31.7411 -96.3433 292° West 398 458 36,000  Level Fort Worth Center
01:04PM 31.7778 -96.4797 288° West 417 480 36,000  Level Fort Worth Center
01:05PM 31.8203 -96.6114 291° West 427 491 36,000  Level Fort Worth Center
01:06PM 31.8586 -96.7431 289° West 433 498 36,000  Level Fort Worth Center
01:07PM 31.8950 -96.8775 288° West 433 498 36,000  Level Fort Worth Center
01:08PM 31.9308 -97.0069 288° West 426 490 36,000  Level Fort Worth Center
01:09PM 31.9708 -97.1561 288° West 426 490 36,000  Level Fort Worth Center
01:10PM 32.0086 -97.2861 289° West 420 483 36,000  Level Fort Worth Center
01:11PM 32.0464 -97.4183 289° West 420 483 36,000  Level Fort Worth Center
01:12PM 32.0839 -97.5506 289° West 425 489 36,000  Level Fort Worth Center
01:13PM 32.1192 -97.6708 289° West 425 489 36,000  Level Fort Worth Center
01:14PM 32.1606 -97.8036 290° West 425 489 36,000  Level Fort Worth Center
01:15PM 32.1975 -97.9339 289° West 425 489 36,000  Level Fort Worth Center
01:16PM 32.2367 -98.0642 290° West 425 489 36,000  Level Fort Worth Center
01:17PM 32.2736 -98.1947 289° West 425 489 36,000  Level Fort Worth Center
01:18PM 32.3164 -98.3400 289° West 425 489 36,000  Level Fort Worth Center
01:19PM 32.3550 -98.4733 289° West 425 489 36,000  Level Fort Worth Center
01:20PM 32.3892 -98.6017 288° West 420 483 36,000  Level Fort Worth Center
01:21PM 32.4297 -98.7328 290° West 425 489 36,000  Level Fort Worth Center
01:22PM 32.4597 -98.8414 288° West 419 482 36,000  Level Fort Worth Center
01:23PM 32.4958 -98.9678 289° West 414 476 36,000  Level Fort Worth Center
01:24PM 32.5339 -99.0964 289° West 414 476 36,000  Level Fort Worth Center
01:25PM 32.5697 -99.2278 288° West 414 476 36,000  Level Fort Worth Center
01:26PM 32.6053 -99.3567 288° West 414 476 36,000  Level Fort Worth Center
01:27PM 32.6408 -99.4858 288° West 414 476 36,000  Level Fort Worth Center
01:28PM 32.6761 -99.6150 288° West 414 476 36,000  Level Fort Worth Center
01:29PM 32.7136 -99.7442 289° West 414 476 36,000  Level Fort Worth Center
01:30PM 32.7506 -99.8786 288° West 414 476 36,000  Level Fort Worth Center
01:31PM 32.7917 -100.0231 289° West 419 482 36,000  Level Fort Worth Center
01:32PM 32.8244 -100.1475 287° West 424 488 36,000  Level Fort Worth Center
01:33PM 32.8592 -100.2772 288° West 419 482 36,000  Level Fort Worth Center
01:34PM 32.8936 -100.4094 287° West 419 482 36,000  Level Fort Worth Center
01:35PM 32.9281 -100.5392 288° West 419 482 36,000  Level Fort Worth Center
01:36PM 32.9642 -100.6692 288° West 419 482 36,000  Level Fort Worth Center
01:37PM 32.9983 -100.7994 287° West 419 482 36,000  Level Fort Worth Center
01:38PM 33.0325 -100.9294 287° West 419 482 36,000  Level Fort Worth Center
01:39PM 33.0625 -101.0422 288° West 413 475 36,000  Level Fort Worth Center
01:40PM 33.1022 -101.1853 288° West 408 470 36,000  Level Fort Worth Center
01:41PM 33.1319 -101.3006 287° West 408 470 36,000  Level Fort Worth Center
01:42PM 33.1672 -101.4411 287° West 408 470 36,000  Level Fort Worth Center
01:43PM 33.1989 -101.5592 288° West 408 470 36,000  Level Fort Worth Center
01:44PM 33.2336 -101.7022 286° West 413 475 36,000  Level Fort Worth Center
01:45PM 33.2631 -101.8206 287° West 408 470 36,000  Level Fort Worth Center
01:46PM 33.2997 -101.9639 287° West 408 470 36,000  Level Fort Worth Center
01:47PM 33.3344 -102.0925 288° West 408 470 36,000  Level Fort Worth Center
01:48PM 33.3717 -102.2139 290° West 403 464 36,000  Level Fort Worth Center
01:49PM 33.4108 -102.3378 291° West 403 464 36,000  Level Fort Worth Center
01:50PM 33.4497 -102.4619 291° West 403 464 36,000  Level Fort Worth Center
01:52PM 33.5261 -102.7139 290° West 394 453 36,000  Level Albuquerque Center
01:53PM 33.5628 -102.8369 290° West 393 452 36,000  Level Albuquerque Center
01:54PM 33.6064 -102.9836 290° West 392 451 36,000 -60 Level Albuquerque Center
01:55PM 33.6425 -103.1083 289° West 390 449 35,900  Descending Albuquerque Center
01:56PM 33.6764 -103.2283 289° West 390 449 36,000  Climbing Albuquerque Center
01:57PM 33.7108 -103.3481 289° West 386 444 36,000  Level Albuquerque Center
01:58PM 33.7475 -103.4639 291° West 377 434 36,000  Level Albuquerque Center
01:59PM 33.7883 -103.6072 289° West 376 433 36,000  Level Albuquerque Center
02:00PM 33.8250 -103.7336 289° West 383 441 36,000  Level Albuquerque Center
02:01PM 33.8603 -103.8542 289° West 383 441 36,000  Level Albuquerque Center
02:02PM 33.8964 -103.9836 289° West 381 438 36,000  Level Albuquerque Center
02:03PM 33.9311 -104.1047 289° West 383 441 36,000  Level Albuquerque Center
02:04PM 33.9683 -104.2364 289° West 387 445 36,000  Level Albuquerque Center
02:05PM 34.0022 -104.3578 289° West 384 442 36,000  Level Albuquerque Center
02:06PM 34.0347 -104.4722 289° West 387 445 36,000  Level Albuquerque Center
02:07PM 34.0756 -104.6175 289° West 387 445 36,000  Level Albuquerque Center
02:08PM 34.1108 -104.7397 289° West 383 441 36,000  Level Albuquerque Center
02:09PM 34.1458 -104.8672 288° West 392 451 36,000  Level Albuquerque Center
02:10PM 34.1806 -104.9933 288° West 392 451 36,000  Level Albuquerque Center
02:11PM 34.2158 -105.1203 289° West 394 453 36,000  Level Albuquerque Center
02:12PM 34.2511 -105.2472 289° West 395 455 36,000  Level Albuquerque Center
02:13PM 34.2856 -105.3728 288° West 392 451 36,000  Level Albuquerque Center
02:15PM 34.3194 -105.4994 288° West 392 451 36,000  Level Albuquerque Center
02:16PM 34.3600 -105.6494 288° West 396 456 36,000  Level Albuquerque Center
02:17PM 34.3872 -105.7794 284° West 396 456 36,000  Level Albuquerque Center
02:18PM 34.4142 -105.9108 284° West 398 458 36,000  Level Albuquerque Center
02:19PM 34.4378 -106.0442 282° West 400 460 36,000  Level Albuquerque Center
02:20PM 34.4639 -106.1781 283° West 402 463 36,000  Level Albuquerque Center
02:21PM 34.4908 -106.3225 283° West 404 465 36,000  Level Albuquerque Center
02:22PM 34.5167 -106.4556 283° West 405 466 36,000  Level Albuquerque Center
02:23PM 34.5406 -106.5883 282° West 403 464 36,000  Level Albuquerque Center
02:24PM 34.5647 -106.7228 282° West 411 473 36,000  Level Albuquerque Center
02:25PM 34.5894 -106.8572 283° West 406 467 36,000  Level Albuquerque Center
02:26PM 34.6150 -106.9928 283° West 407 468 36,000  Level Albuquerque Center
02:27PM 34.6392 -107.1250 283° West 401 461 36,000  Level Albuquerque Center
02:28PM 34.6636 -107.2594 283° West 404 465 36,000  Level Albuquerque Center
02:29PM 34.6867 -107.3925 282° West 403 464 36,000  Level Albuquerque Center
02:30PM 34.7153 -107.5519 282° West 401 461 36,000  Level Albuquerque Center
02:31PM 34.7394 -107.6867 282° West 405 466 36,000  Level Albuquerque Center
02:32PM 34.7636 -107.8211 282° West 405 466 36,000  Level Albuquerque Center
02:33PM 34.7872 -107.9550 282° West 405 466 36,000  Level Albuquerque Center
02:34PM 34.8103 -108.0903 282° West 407 468 36,000  Level Albuquerque Center
02:35PM 34.8353 -108.2258 283° West 409 471 36,000  Level Albuquerque Center
02:36PM 34.8631 -108.3856 282° West 408 470 36,000  Level Albuquerque Center
02:37PM 34.8844 -108.5178 281° West 411 473 36,000  Level Albuquerque Center
02:38PM 34.9106 -108.6697 282° West 410 472 36,000  Level Albuquerque Center
02:39PM 34.9328 -108.7994 282° West 409 471 36,000  Level Albuquerque Center
02:40PM 34.9575 -108.9528 281° West 410 472 36,000  Level Albuquerque Center
02:41PM 34.9794 -109.0831 282° West 410 472 36,000  Level Albuquerque Center
02:42PM 35.0017 -109.2153 282° West 412 474 36,000  Level Albuquerque Center
02:43PM 35.0256 -109.3686 281° West 413 475 36,000  Level Albuquerque Center
02:44PM 35.0464 -109.4992 281° West 410 472 36,000  Level Albuquerque Center
02:45PM 35.0722 -109.6528 282° West 411 473 36,000  Level Albuquerque Center
02:47PM 35.0942 -109.7842 282° West 412 474 36,000  Level Albuquerque Center
02:48PM 35.1186 -109.9411 281° West 416 479 36,000  Level Albuquerque Center
02:49PM 35.1383 -110.0750 280° West 417 480 36,000  Level Albuquerque Center
02:50PM 35.1578 -110.2078 280° West 415 478 36,000  Level Albuquerque Center
02:51PM 35.1814 -110.3631 281° West 417 480 36,000  Level Albuquerque Center
02:52PM 35.2011 -110.4983 280° West 419 482 36,000  Level Albuquerque Center
02:53PM 35.2239 -110.6569 280° West 423 487 36,000 -180 Level Albuquerque Center
02:54PM 35.2453 -110.7939 281° West 426 490 35,700 -540 Descending Albuquerque Center
02:55PM 35.2700 -110.9553 281° West 430 495 35,000 -720 Descending Albuquerque Center
02:56PM 35.2894 -111.0922 280° West 435 501 34,300 -720 Descending Albuquerque Center
02:57PM 35.3136 -111.2611 280° West 444 511 33,600 -720 Descending Albuquerque Center
02:58PM 35.3339 -111.3981 280° West 431 496 32,900 -720 Descending Albuquerque Center
02:59PM 35.3578 -111.5614 280° West 447 514 32,200 -720 Descending Albuquerque Center
03:00PM 35.3800 -111.7092 280° West 445 512 31,500 -720 Descending Albuquerque Center
03:01PM 35.4003 -111.8569 280° West 444 511 30,800 -660 Descending Albuquerque Center
03:02PM 35.4206 -112.0067 279° West 447 514 30,200 -420 Descending Albuquerque Center
03:03PM 35.4411 -112.1567 280° West 449 517 30,000 -120 Descending Albuquerque Center
03:04PM 35.4669 -112.3364 280° West 450 518 30,000  Level Albuquerque Center
03:05PM 35.4861 -112.4878 279° West 452 520 30,000 -180 Level Albuquerque Center
03:06PM 35.5069 -112.6378 280° West 452 520 29,700 -540 Descending Albuquerque Center
03:07PM 35.5272 -112.7886 279° West 456 525 28,900 -780 Descending Albuquerque Center
03:08PM 35.5472 -112.9361 280° West 453 521 28,100 -840 Descending Albuquerque Center
03:09PM 35.5731 -113.1467 279° West 443 510 27,100 -900 Descending Los Angeles Center
03:10PM 35.5919 -113.2861 279° West 439 505 26,100 -1,260 Descending Los Angeles Center
03:11PM 35.6094 -113.4283 279° West 427 491 24,500 -1,500 Descending Los Angeles Center
03:12PM 35.6272 -113.5706 279° West 424 488 23,000 -1,200 Descending Los Angeles Center
03:14PM 35.6503 -113.7353 280° West 413 475 22,000 -1,680 Descending Los Angeles Center
03:15PM 35.6708 -113.8736 280° West 412 474 19,500 -2,520 Descending Los Angeles Center
03:16PM 35.6894 -114.0142 279° West 418 481 16,800 -2,820 Descending Los Angeles Center
03:17PM 35.7206 -114.2003 282° West 413 475 13,100 -2,340 Descending Los Angeles Center
03:18PM 35.7278 -114.2919 276° West 388 447 12,000 -840 Descending Los Angeles Center
03:19PM 35.7856 -114.4014 303° West 306 352 11,400 -780 Descending Los Angeles Center
03:20PM 35.8386 -114.4292 337° Northwest 305 351 10,500 -720 Descending Los Angeles Center
03:21PM 35.9428 -114.4756 340° North 282 325 10,000 -300 Descending Los Angeles Center
03:22PM 35.9981 -114.5033 338° Northwest 265 305 9,900 -120 Descending Los Angeles Center
03:23PM 36.0433 -114.5581 316° Northwest 244 281 9,800 -420 Descending Los Angeles Center
03:24PM 36.0539 -114.6200 282° West 232 267 9,100 -780 Descending Los Angeles Center
03:25PM 36.0692 -114.7158 281° West 234 269 8,200 -960 Descending Los Angeles Center
03:26PM 36.0739 -114.7956 274° West 233 268 7,200 -1,020 Descending Los Angeles Center
03:27PM 36.0742 -114.8919 270° West 228 262 6,100 -1,020 Descending Los Angeles Center